sensor_id;sensor_type;location;lat;lon;timestamp;P1;durP1;ratioP1;P2;durP2;ratioP2
52456;SDS011;38369;52.840;7.082;2023-03-01T00:00:41;29.02;;;20.40;;
52456;SDS011;38369;52.840;7.082;2023-03-01T00:03:11;35.85;;;21.25;;
52456;SDS011;38369;52.840;7.082;2023-03-01T00:05:43;26.52;;;19.25;;
52456;SDS011;38369;52.840;7.082;2023-03-01T00:08:09;26.15;;;18.65;;
52456;SDS011;38369;52.840;7.082;2023-03-01T00:10:35;32.65;;;20.80;;
52456;SDS011;38369;52.840;7.082;2023-03-01T00:13:01;26.80;;;18.75;;
52456;SDS011;38369;52.840;7.082;2023-03-01T00:15:27;30.92;;;18.85;;
52456;SDS011;38369;52.840;7.082;2023-03-01T00:17:53;28.17;;;18.58;;
52456;SDS011;38369;52.840;7.082;2023-03-01T00:20:19;25.90;;;19.27;;
52456;SDS011;38369;52.840;7.082;2023-03-01T00:22:45;24.42;;;18.42;;
52456;SDS011;38369;52.840;7.082;2023-03-01T00:25:11;27.30;;;19.40;;
52456;SDS011;38369;52.840;7.082;2023-03-01T00:27:38;28.55;;;20.95;;
52456;SDS011;38369;52.840;7.082;2023-03-01T00:30:04;29.75;;;20.48;;
52456;SDS011;38369;52.840;7.082;2023-03-01T00:32:30;27.80;;;19.80;;
52456;SDS011;38369;52.840;7.082;2023-03-01T00:34:56;26.65;;;19.48;;
52456;SDS011;38369;52.840;7.082;2023-03-01T00:37:22;26.42;;;18.65;;
52456;SDS011;38369;52.840;7.082;2023-03-01T00:39:48;26.50;;;19.25;;
52456;SDS011;38369;52.840;7.082;2023-03-01T00:42:15;28.23;;;20.27;;
52456;SDS011;38369;52.840;7.082;2023-03-01T00:44:41;24.27;;;18.30;;
52456;SDS011;38369;52.840;7.082;2023-03-01T00:47:07;26.88;;;18.88;;
52456;SDS011;38369;52.840;7.082;2023-03-01T00:49:34;33.63;;;21.63;;
52456;SDS011;38369;52.840;7.082;2023-03-01T00:52:00;31.98;;;19.58;;
52456;SDS011;38369;52.840;7.082;2023-03-01T00:54:26;31.10;;;21.15;;
52456;SDS011;38369;52.840;7.082;2023-03-01T00:56:52;33.40;;;21.58;;
52456;SDS011;38369;52.840;7.082;2023-03-01T00:59:18;34.92;;;23.63;;
52456;SDS011;38369;52.840;7.082;2023-03-01T01:01:44;36.83;;;22.45;;
52456;SDS011;38369;52.840;7.082;2023-03-01T01:04:11;28.85;;;20.13;;
52456;SDS011;38369;52.840;7.082;2023-03-01T01:06:38;36.58;;;23.23;;
52456;SDS011;38369;52.840;7.082;2023-03-01T01:09:08;30.93;;;21.57;;
52456;SDS011;38369;52.840;7.082;2023-03-01T01:11:34;32.20;;;22.05;;
52456;SDS011;38369;52.840;7.082;2023-03-01T01:14:01;28.55;;;20.27;;
52456;SDS011;38369;52.840;7.082;2023-03-01T01:16:27;32.50;;;21.25;;
52456;SDS011;38369;52.840;7.082;2023-03-01T01:18:54;31.75;;;21.05;;
52456;SDS011;38369;52.840;7.082;2023-03-01T01:21:21;28.65;;;18.88;;
52456;SDS011;38369;52.840;7.082;2023-03-01T01:23:48;34.30;;;22.08;;
52456;SDS011;38369;52.840;7.082;2023-03-01T01:26:16;41.67;;;24.20;;
52456;SDS011;38369;52.840;7.082;2023-03-01T01:28:42;39.38;;;22.73;;
52456;SDS011;38369;52.840;7.082;2023-03-01T01:31:08;38.83;;;23.08;;
52456;SDS011;38369;52.840;7.082;2023-03-01T01:33:34;34.38;;;21.45;;
52456;SDS011;38369;52.840;7.082;2023-03-01T01:36:01;34.42;;;23.00;;
52456;SDS011;38369;52.840;7.082;2023-03-01T01:38:27;37.03;;;22.90;;
52456;SDS011;38369;52.840;7.082;2023-03-01T01:40:53;35.85;;;22.10;;
52456;SDS011;38369;52.840;7.082;2023-03-01T01:43:23;37.60;;;24.73;;
52456;SDS011;38369;52.840;7.082;2023-03-01T01:45:50;35.83;;;22.00;;
52456;SDS011;38369;52.840;7.082;2023-03-01T01:48:18;35.03;;;22.92;;
52456;SDS011;38369;52.840;7.082;2023-03-01T01:50:45;33.47;;;21.92;;
52456;SDS011;38369;52.840;7.082;2023-03-01T01:53:16;30.70;;;21.23;;
52456;SDS011;38369;52.840;7.082;2023-03-01T01:55:47;33.28;;;21.95;;
52456;SDS011;38369;52.840;7.082;2023-03-01T01:58:15;35.17;;;22.67;;
52456;SDS011;38369;52.840;7.082;2023-03-01T02:00:43;38.50;;;23.90;;
52456;SDS011;38369;52.840;7.082;2023-03-01T02:03:10;40.38;;;21.98;;
52456;SDS011;38369;52.840;7.082;2023-03-01T02:05:38;36.10;;;23.35;;
52456;SDS011;38369;52.840;7.082;2023-03-01T02:08:08;31.13;;;21.42;;
52456;SDS011;38369;52.840;7.082;2023-03-01T02:10:36;32.17;;;22.60;;
52456;SDS011;38369;52.840;7.082;2023-03-01T02:13:03;35.75;;;19.98;;
52456;SDS011;38369;52.840;7.082;2023-03-01T02:15:35;28.58;;;21.92;;
52456;SDS011;38369;52.840;7.082;2023-03-01T02:18:02;33.83;;;22.38;;
52456;SDS011;38369;52.840;7.082;2023-03-01T02:22:58;27.85;;;17.13;;
52456;SDS011;38369;52.840;7.082;2023-03-01T02:27:54;27.90;;;19.65;;
52456;SDS011;38369;52.840;7.082;2023-03-01T02:30:22;25.77;;;19.52;;
52456;SDS011;38369;52.840;7.082;2023-03-01T02:32:51;32.42;;;20.70;;
52456;SDS011;38369;52.840;7.082;2023-03-01T02:35:18;30.83;;;21.15;;
52456;SDS011;38369;52.840;7.082;2023-03-01T02:37:45;33.60;;;21.40;;
52456;SDS011;38369;52.840;7.082;2023-03-01T02:40:13;31.05;;;20.50;;
52456;SDS011;38369;52.840;7.082;2023-03-01T02:42:45;30.95;;;20.60;;
52456;SDS011;38369;52.840;7.082;2023-03-01T02:45:13;33.13;;;22.50;;
52456;SDS011;38369;52.840;7.082;2023-03-01T02:47:39;51.72;;;19.38;;
52456;SDS011;38369;52.840;7.082;2023-03-01T02:52:59;28.20;;;19.67;;
52456;SDS011;38369;52.840;7.082;2023-03-01T02:55:26;29.80;;;19.60;;
52456;SDS011;38369;52.840;7.082;2023-03-01T02:57:53;27.50;;;19.63;;
52456;SDS011;38369;52.840;7.082;2023-03-01T03:00:29;21.67;;;16.90;;
52456;SDS011;38369;52.840;7.082;2023-03-01T03:02:57;25.60;;;17.05;;
52456;SDS011;38369;52.840;7.082;2023-03-01T03:05:25;34.55;;;19.63;;
52456;SDS011;38369;52.840;7.082;2023-03-01T03:07:51;26.00;;;20.17;;
52456;SDS011;38369;52.840;7.082;2023-03-01T03:10:18;31.33;;;21.42;;
52456;SDS011;38369;52.840;7.082;2023-03-01T03:12:55;32.67;;;22.75;;
52456;SDS011;38369;52.840;7.082;2023-03-01T03:15:21;26.90;;;19.45;;
52456;SDS011;38369;52.840;7.082;2023-03-01T03:17:48;26.50;;;19.67;;
52456;SDS011;38369;52.840;7.082;2023-03-01T03:20:15;34.17;;;22.02;;
52456;SDS011;38369;52.840;7.082;2023-03-01T03:22:47;33.60;;;22.05;;
52456;SDS011;38369;52.840;7.082;2023-03-01T03:25:14;29.40;;;20.33;;
52456;SDS011;38369;52.840;7.082;2023-03-01T03:27:40;30.35;;;20.75;;
52456;SDS011;38369;52.840;7.082;2023-03-01T03:30:08;36.13;;;22.17;;
52456;SDS011;38369;52.840;7.082;2023-03-01T03:32:38;36.33;;;22.92;;
52456;SDS011;38369;52.840;7.082;2023-03-01T03:35:04;31.27;;;21.77;;
52456;SDS011;38369;52.840;7.082;2023-03-01T03:37:40;34.13;;;22.27;;
52456;SDS011;38369;52.840;7.082;2023-03-01T03:40:34;33.13;;;20.85;;
52456;SDS011;38369;52.840;7.082;2023-03-01T03:43:01;35.63;;;22.63;;
52456;SDS011;38369;52.840;7.082;2023-03-01T03:45:28;36.47;;;22.23;;
52456;SDS011;38369;52.840;7.082;2023-03-01T03:47:54;28.83;;;20.00;;
52456;SDS011;38369;52.840;7.082;2023-03-01T03:50:20;31.45;;;20.80;;
52456;SDS011;38369;52.840;7.082;2023-03-01T03:52:46;34.05;;;22.00;;
52456;SDS011;38369;52.840;7.082;2023-03-01T03:55:12;33.15;;;21.88;;
52456;SDS011;38369;52.840;7.082;2023-03-01T03:57:39;29.42;;;21.17;;
52456;SDS011;38369;52.840;7.082;2023-03-01T04:00:05;32.50;;;21.80;;
52456;SDS011;38369;52.840;7.082;2023-03-01T04:02:43;30.27;;;21.40;;
52456;SDS011;38369;52.840;7.082;2023-03-01T04:05:10;33.95;;;22.13;;
52456;SDS011;38369;52.840;7.082;2023-03-01T04:07:36;31.85;;;22.75;;
52456;SDS011;38369;52.840;7.082;2023-03-01T04:10:06;35.92;;;22.38;;
52456;SDS011;38369;52.840;7.082;2023-03-01T04:12:33;36.70;;;23.40;;
52456;SDS011;38369;52.840;7.082;2023-03-01T04:15:00;34.90;;;22.75;;
52456;SDS011;38369;52.840;7.082;2023-03-01T04:17:26;36.42;;;23.83;;
52456;SDS011;38369;52.840;7.082;2023-03-01T04:19:52;36.10;;;23.13;;
52456;SDS011;38369;52.840;7.082;2023-03-01T04:22:18;36.35;;;22.55;;
52456;SDS011;38369;52.840;7.082;2023-03-01T04:24:44;34.08;;;21.13;;
52456;SDS011;38369;52.840;7.082;2023-03-01T04:27:11;34.83;;;22.08;;
52456;SDS011;38369;52.840;7.082;2023-03-01T04:29:37;32.83;;;21.45;;
52456;SDS011;38369;52.840;7.082;2023-03-01T04:32:03;38.30;;;22.98;;
52456;SDS011;38369;52.840;7.082;2023-03-01T04:34:30;35.58;;;23.13;;
52456;SDS011;38369;52.840;7.082;2023-03-01T04:36:56;34.83;;;22.40;;
52456;SDS011;38369;52.840;7.082;2023-03-01T04:39:22;38.53;;;22.25;;
52456;SDS011;38369;52.840;7.082;2023-03-01T04:41:48;42.20;;;22.33;;
52456;SDS011;38369;52.840;7.082;2023-03-01T04:44:14;36.55;;;22.02;;
52456;SDS011;38369;52.840;7.082;2023-03-01T04:46:40;34.75;;;22.45;;
52456;SDS011;38369;52.840;7.082;2023-03-01T04:49:06;37.75;;;24.15;;
52456;SDS011;38369;52.840;7.082;2023-03-01T04:51:33;35.75;;;23.73;;
52456;SDS011;38369;52.840;7.082;2023-03-01T04:53:59;39.03;;;23.35;;
52456;SDS011;38369;52.840;7.082;2023-03-01T04:56:25;35.38;;;22.65;;
52456;SDS011;38369;52.840;7.082;2023-03-01T04:58:54;44.63;;;25.20;;
52456;SDS011;38369;52.840;7.082;2023-03-01T05:01:21;36.67;;;23.30;;
52456;SDS011;38369;52.840;7.082;2023-03-01T05:03:48;36.25;;;23.48;;
52456;SDS011;38369;52.840;7.082;2023-03-01T05:06:15;37.08;;;22.83;;
52456;SDS011;38369;52.840;7.082;2023-03-01T05:08:41;35.97;;;23.10;;
52456;SDS011;38369;52.840;7.082;2023-03-01T05:11:08;37.95;;;22.90;;
52456;SDS011;38369;52.840;7.082;2023-03-01T05:13:35;37.92;;;22.98;;
52456;SDS011;38369;52.840;7.082;2023-03-01T05:16:02;34.95;;;23.23;;
52456;SDS011;38369;52.840;7.082;2023-03-01T05:18:28;33.28;;;23.38;;
52456;SDS011;38369;52.840;7.082;2023-03-01T05:20:55;36.67;;;23.38;;
52456;SDS011;38369;52.840;7.082;2023-03-01T05:23:23;37.10;;;23.17;;
52456;SDS011;38369;52.840;7.082;2023-03-01T05:25:49;34.03;;;23.38;;
52456;SDS011;38369;52.840;7.082;2023-03-01T05:28:17;36.85;;;22.90;;
52456;SDS011;38369;52.840;7.082;2023-03-01T05:30:44;36.88;;;24.67;;
52456;SDS011;38369;52.840;7.082;2023-03-01T05:33:10;36.47;;;22.90;;
52456;SDS011;38369;52.840;7.082;2023-03-01T05:35:41;42.10;;;24.25;;
52456;SDS011;38369;52.840;7.082;2023-03-01T05:38:08;32.07;;;22.30;;
52456;SDS011;38369;52.840;7.082;2023-03-01T05:40:38;31.75;;;18.98;;
52456;SDS011;38369;52.840;7.082;2023-03-01T05:43:04;38.03;;;23.08;;
52456;SDS011;38369;52.840;7.082;2023-03-01T05:45:30;44.75;;;25.00;;
52456;SDS011;38369;52.840;7.082;2023-03-01T05:47:57;46.83;;;25.48;;
52456;SDS011;38369;52.840;7.082;2023-03-01T05:50:24;43.22;;;24.35;;
52456;SDS011;38369;52.840;7.082;2023-03-01T05:52:52;44.40;;;24.50;;
52456;SDS011;38369;52.840;7.082;2023-03-01T05:55:19;45.75;;;25.42;;
52456;SDS011;38369;52.840;7.082;2023-03-01T05:57:46;44.85;;;23.65;;
52456;SDS011;38369;52.840;7.082;2023-03-01T06:00:13;45.47;;;24.77;;
52456;SDS011;38369;52.840;7.082;2023-03-01T06:02:39;45.40;;;25.65;;
52456;SDS011;38369;52.840;7.082;2023-03-01T06:05:06;41.88;;;23.92;;
52456;SDS011;38369;52.840;7.082;2023-03-01T06:07:32;39.67;;;23.80;;
52456;SDS011;38369;52.840;7.082;2023-03-01T06:09:58;41.95;;;24.25;;
52456;SDS011;38369;52.840;7.082;2023-03-01T06:12:24;42.58;;;26.10;;
52456;SDS011;38369;52.840;7.082;2023-03-01T06:14:50;45.53;;;24.38;;
52456;SDS011;38369;52.840;7.082;2023-03-01T06:17:16;45.97;;;24.33;;
52456;SDS011;38369;52.840;7.082;2023-03-01T06:19:42;39.10;;;25.10;;
52456;SDS011;38369;52.840;7.082;2023-03-01T06:22:08;43.10;;;25.17;;
52456;SDS011;38369;52.840;7.082;2023-03-01T06:24:34;43.13;;;26.75;;
52456;SDS011;38369;52.840;7.082;2023-03-01T06:27:00;39.97;;;25.85;;
52456;SDS011;38369;52.840;7.082;2023-03-01T06:29:26;43.30;;;26.23;;
52456;SDS011;38369;52.840;7.082;2023-03-01T06:31:52;41.03;;;24.40;;
52456;SDS011;38369;52.840;7.082;2023-03-01T06:34:19;41.50;;;24.52;;
52456;SDS011;38369;52.840;7.082;2023-03-01T06:36:46;35.38;;;22.40;;
52456;SDS011;38369;52.840;7.082;2023-03-01T06:39:12;37.33;;;22.50;;
52456;SDS011;38369;52.840;7.082;2023-03-01T06:41:38;40.95;;;24.40;;
52456;SDS011;38369;52.840;7.082;2023-03-01T06:44:04;33.35;;;20.73;;
52456;SDS011;38369;52.840;7.082;2023-03-01T06:46:30;34.35;;;21.45;;
52456;SDS011;38369;52.840;7.082;2023-03-01T06:48:57;35.45;;;22.48;;
52456;SDS011;38369;52.840;7.082;2023-03-01T06:51:23;35.38;;;23.27;;
52456;SDS011;38369;52.840;7.082;2023-03-01T06:53:49;38.55;;;23.30;;
52456;SDS011;38369;52.840;7.082;2023-03-01T06:56:15;44.88;;;26.27;;
52456;SDS011;38369;52.840;7.082;2023-03-01T06:58:41;35.25;;;24.15;;
52456;SDS011;38369;52.840;7.082;2023-03-01T07:01:07;41.80;;;26.85;;
52456;SDS011;38369;52.840;7.082;2023-03-01T07:03:33;42.13;;;26.17;;
52456;SDS011;38369;52.840;7.082;2023-03-01T07:05:59;38.97;;;24.95;;
52456;SDS011;38369;52.840;7.082;2023-03-01T07:08:25;37.08;;;24.67;;
52456;SDS011;38369;52.840;7.082;2023-03-01T07:10:58;41.33;;;25.65;;
52456;SDS011;38369;52.840;7.082;2023-03-01T07:13:26;37.60;;;23.30;;
52456;SDS011;38369;52.840;7.082;2023-03-01T07:15:52;37.85;;;23.45;;
52456;SDS011;38369;52.840;7.082;2023-03-01T07:18:18;40.28;;;25.90;;
52456;SDS011;38369;52.840;7.082;2023-03-01T07:20:45;43.97;;;26.95;;
52456;SDS011;38369;52.840;7.082;2023-03-01T07:23:11;42.00;;;25.75;;
52456;SDS011;38369;52.840;7.082;2023-03-01T07:25:37;45.15;;;26.08;;
52456;SDS011;38369;52.840;7.082;2023-03-01T09:22:23;21.15;;;14.20;;
52456;SDS011;38369;52.840;7.082;2023-03-01T09:24:49;19.42;;;13.35;;
52456;SDS011;38369;52.840;7.082;2023-03-01T09:27:15;22.17;;;12.57;;
52456;SDS011;38369;52.840;7.082;2023-03-01T09:29:44;21.52;;;14.63;;
52456;SDS011;38369;52.840;7.082;2023-03-01T09:32:10;16.83;;;13.00;;
52456;SDS011;38369;52.840;7.082;2023-03-01T09:34:36;15.77;;;11.13;;
52456;SDS011;38369;52.840;7.082;2023-03-01T09:37:22;17.10;;;11.32;;
52456;SDS011;38369;52.840;7.082;2023-03-01T09:39:48;17.70;;;11.30;;
52456;SDS011;38369;52.840;7.082;2023-03-01T09:42:14;21.05;;;12.93;;
52456;SDS011;38369;52.840;7.082;2023-03-01T09:44:46;14.77;;;11.15;;
52456;SDS011;38369;52.840;7.082;2023-03-01T09:49:43;15.32;;;11.00;;
52456;SDS011;38369;52.840;7.082;2023-03-01T09:52:19;14.35;;;9.98;;
52456;SDS011;38369;52.840;7.082;2023-03-01T09:54:46;13.07;;;9.25;;
52456;SDS011;38369;52.840;7.082;2023-03-01T10:02:30;12.70;;;8.52;;
52456;SDS011;38369;52.840;7.082;2023-03-01T10:05:00;11.60;;;8.48;;
52456;SDS011;38369;52.840;7.082;2023-03-01T10:10:29;14.52;;;9.10;;
52456;SDS011;38369;52.840;7.082;2023-03-01T10:12:58;11.15;;;8.27;;
52456;SDS011;38369;52.840;7.082;2023-03-01T10:15:30;9.32;;;7.20;;
52456;SDS011;38369;52.840;7.082;2023-03-01T10:18:01;10.70;;;7.68;;
52456;SDS011;38369;52.840;7.082;2023-03-01T10:23:04;9.98;;;6.90;;
52456;SDS011;38369;52.840;7.082;2023-03-01T10:28:31;9.75;;;6.53;;
52456;SDS011;38369;52.840;7.082;2023-03-01T10:31:03;9.52;;;6.95;;
52456;SDS011;38369;52.840;7.082;2023-03-01T10:33:31;10.52;;;6.30;;
52456;SDS011;38369;52.840;7.082;2023-03-01T10:35:58;8.63;;;6.20;;
52456;SDS011;38369;52.840;7.082;2023-03-01T10:38:24;9.75;;;5.78;;
52456;SDS011;38369;52.840;7.082;2023-03-01T10:40:51;12.77;;;5.30;;
52456;SDS011;38369;52.840;7.082;2023-03-01T10:43:18;8.85;;;5.15;;
52456;SDS011;38369;52.840;7.082;2023-03-01T10:45:44;7.35;;;6.05;;
52456;SDS011;38369;52.840;7.082;2023-03-01T10:48:15;8.73;;;6.35;;
52456;SDS011;38369;52.840;7.082;2023-03-01T10:53:16;8.88;;;6.05;;
52456;SDS011;38369;52.840;7.082;2023-03-01T10:55:45;10.23;;;6.50;;
52456;SDS011;38369;52.840;7.082;2023-03-01T11:00:51;7.85;;;5.53;;
52456;SDS011;38369;52.840;7.082;2023-03-01T11:03:19;9.73;;;6.38;;
52456;SDS011;38369;52.840;7.082;2023-03-01T11:06:01;8.60;;;5.75;;
52456;SDS011;38369;52.840;7.082;2023-03-01T11:08:31;8.75;;;5.43;;
52456;SDS011;38369;52.840;7.082;2023-03-01T11:13:56;8.60;;;4.97;;
52456;SDS011;38369;52.840;7.082;2023-03-01T11:16:42;6.80;;;4.85;;
52456;SDS011;38369;52.840;7.082;2023-03-01T11:21:36;7.35;;;5.20;;
52456;SDS011;38369;52.840;7.082;2023-03-01T11:24:03;7.88;;;4.65;;
52456;SDS011;38369;52.840;7.082;2023-03-01T11:26:30;9.52;;;5.75;;
52456;SDS011;38369;52.840;7.082;2023-03-01T11:28:58;7.47;;;5.03;;
52456;SDS011;38369;52.840;7.082;2023-03-01T11:31:26;9.25;;;5.80;;
52456;SDS011;38369;52.840;7.082;2023-03-01T11:34:11;7.40;;;6.13;;
52456;SDS011;38369;52.840;7.082;2023-03-01T11:36:44;7.38;;;5.55;;
52456;SDS011;38369;52.840;7.082;2023-03-01T11:39:23;9.35;;;5.43;;
52456;SDS011;38369;52.840;7.082;2023-03-01T11:41:56;6.73;;;4.70;;
52456;SDS011;38369;52.840;7.082;2023-03-01T11:44:25;8.20;;;5.45;;
52456;SDS011;38369;52.840;7.082;2023-03-01T11:52:13;14.38;;;9.48;;
52456;SDS011;38369;52.840;7.082;2023-03-01T12:02:29;11.45;;;7.07;;
52456;SDS011;38369;52.840;7.082;2023-03-01T12:49:42;14.95;;;8.80;;
52456;SDS011;38369;52.840;7.082;2023-03-01T12:54:39;13.15;;;9.23;;
52456;SDS011;38369;52.840;7.082;2023-03-01T12:57:17;11.30;;;8.00;;
52456;SDS011;38369;52.840;7.082;2023-03-01T13:02:22;13.02;;;9.73;;
52456;SDS011;38369;52.840;7.082;2023-03-01T13:07:53;14.95;;;10.40;;
52456;SDS011;38369;52.840;7.082;2023-03-01T13:21:06;13.20;;;9.93;;
52456;SDS011;38369;52.840;7.082;2023-03-01T13:23:33;14.27;;;9.40;;
52456;SDS011;38369;52.840;7.082;2023-03-01T13:26:01;14.80;;;9.90;;
52456;SDS011;38369;52.840;7.082;2023-03-01T13:31:01;13.90;;;9.88;;
52456;SDS011;38369;52.840;7.082;2023-03-01T13:35:54;17.95;;;10.35;;
52456;SDS011;38369;52.840;7.082;2023-03-01T13:41:06;14.88;;;9.88;;
52456;SDS011;38369;52.840;7.082;2023-03-01T13:43:36;13.90;;;9.30;;
52456;SDS011;38369;52.840;7.082;2023-03-01T13:46:07;12.85;;;9.80;;
52456;SDS011;38369;52.840;7.082;2023-03-01T13:48:34;14.57;;;9.55;;
52456;SDS011;38369;52.840;7.082;2023-03-01T13:51:02;15.93;;;10.18;;
52456;SDS011;38369;52.840;7.082;2023-03-01T13:53:33;14.43;;;10.27;;
52456;SDS011;38369;52.840;7.082;2023-03-01T13:56:02;14.25;;;9.68;;
52456;SDS011;38369;52.840;7.082;2023-03-01T13:58:32;16.98;;;10.45;;
52456;SDS011;38369;52.840;7.082;2023-03-01T14:01:03;12.40;;;9.50;;
52456;SDS011;38369;52.840;7.082;2023-03-01T14:03:31;13.48;;;10.02;;
52456;SDS011;38369;52.840;7.082;2023-03-01T14:08:25;13.10;;;9.45;;
52456;SDS011;38369;52.840;7.082;2023-03-01T14:16:40;16.10;;;9.48;;
52456;SDS011;38369;52.840;7.082;2023-03-01T14:21:25;12.65;;;9.95;;
52456;SDS011;38369;52.840;7.082;2023-03-01T14:23:52;14.95;;;9.68;;
52456;SDS011;38369;52.840;7.082;2023-03-01T14:26:21;15.50;;;8.95;;
52456;SDS011;38369;52.840;7.082;2023-03-01T14:28:48;14.23;;;9.82;;
52456;SDS011;38369;52.840;7.082;2023-03-01T14:33:59;12.90;;;9.70;;
52456;SDS011;38369;52.840;7.082;2023-03-01T14:36:26;14.30;;;9.45;;
52456;SDS011;38369;52.840;7.082;2023-03-01T14:38:53;14.50;;;9.52;;
52456;SDS011;38369;52.840;7.082;2023-03-01T14:41:23;12.20;;;8.63;;
52456;SDS011;38369;52.840;7.082;2023-03-01T14:46:26;12.00;;;9.23;;
52456;SDS011;38369;52.840;7.082;2023-03-01T14:48:56;11.45;;;8.90;;
52456;SDS011;38369;52.840;7.082;2023-03-01T14:51:23;12.75;;;9.52;;
52456;SDS011;38369;52.840;7.082;2023-03-01T14:53:50;15.23;;;10.70;;
52456;SDS011;38369;52.840;7.082;2023-03-01T14:56:16;12.60;;;9.55;;
52456;SDS011;38369;52.840;7.082;2023-03-01T14:58:43;15.10;;;10.43;;
52456;SDS011;38369;52.840;7.082;2023-03-01T15:01:10;15.73;;;11.00;;
52456;SDS011;38369;52.840;7.082;2023-03-01T15:03:43;13.38;;;9.73;;
52456;SDS011;38369;52.840;7.082;2023-03-01T15:06:10;14.07;;;10.73;;
52456;SDS011;38369;52.840;7.082;2023-03-01T15:08:37;15.60;;;10.35;;
52456;SDS011;38369;52.840;7.082;2023-03-01T15:11:16;11.63;;;10.18;;
52456;SDS011;38369;52.840;7.082;2023-03-01T15:13:43;16.67;;;10.43;;
52456;SDS011;38369;52.840;7.082;2023-03-01T15:18:54;17.25;;;11.75;;
52456;SDS011;38369;52.840;7.082;2023-03-01T15:21:24;14.00;;;10.95;;
52456;SDS011;38369;52.840;7.082;2023-03-01T15:24:16;12.48;;;9.70;;
52456;SDS011;38369;52.840;7.082;2023-03-01T15:26:49;15.43;;;10.85;;
52456;SDS011;38369;52.840;7.082;2023-03-01T15:29:19;15.50;;;10.73;;
52456;SDS011;38369;52.840;7.082;2023-03-01T15:32:02;15.35;;;11.25;;
52456;SDS011;38369;52.840;7.082;2023-03-01T15:36:56;11.50;;;8.82;;
52456;SDS011;38369;52.840;7.082;2023-03-01T15:42:47;12.77;;;9.98;;
52456;SDS011;38369;52.840;7.082;2023-03-01T15:44:48;12.45;;;9.43;;
52456;SDS011;38369;52.840;7.082;2023-03-01T15:47:22;13.88;;;9.70;;
52456;SDS011;38369;52.840;7.082;2023-03-01T15:49:50;13.88;;;9.85;;
52456;SDS011;38369;52.840;7.082;2023-03-01T15:52:24;14.52;;;10.35;;
52456;SDS011;38369;52.840;7.082;2023-03-01T15:55:04;14.50;;;9.93;;
52456;SDS011;38369;52.840;7.082;2023-03-01T15:57:31;12.48;;;9.52;;
52456;SDS011;38369;52.840;7.082;2023-03-01T15:59:57;13.32;;;9.75;;
52456;SDS011;38369;52.840;7.082;2023-03-01T16:02:24;15.15;;;10.48;;
52456;SDS011;38369;52.840;7.082;2023-03-01T16:04:50;16.42;;;11.25;;
52456;SDS011;38369;52.840;7.082;2023-03-01T16:07:18;15.52;;;12.13;;
52456;SDS011;38369;52.840;7.082;2023-03-01T16:09:44;16.23;;;12.23;;
52456;SDS011;38369;52.840;7.082;2023-03-01T16:12:14;17.15;;;11.90;;
52456;SDS011;38369;52.840;7.082;2023-03-01T16:14:40;19.50;;;12.68;;
52456;SDS011;38369;52.840;7.082;2023-03-01T16:17:06;17.42;;;12.10;;
52456;SDS011;38369;52.840;7.082;2023-03-01T16:19:35;17.60;;;11.65;;
52456;SDS011;38369;52.840;7.082;2023-03-01T16:22:02;19.20;;;13.52;;
52456;SDS011;38369;52.840;7.082;2023-03-01T16:24:28;19.38;;;12.38;;
52456;SDS011;38369;52.840;7.082;2023-03-01T16:26:55;17.80;;;12.38;;
52456;SDS011;38369;52.840;7.082;2023-03-01T16:29:21;18.60;;;12.20;;
52456;SDS011;38369;52.840;7.082;2023-03-01T16:31:47;18.60;;;12.40;;
52456;SDS011;38369;52.840;7.082;2023-03-01T16:34:13;19.52;;;14.32;;
52456;SDS011;38369;52.840;7.082;2023-03-01T16:36:39;17.92;;;13.05;;
52456;SDS011;38369;52.840;7.082;2023-03-01T16:39:08;19.20;;;14.27;;
52456;SDS011;38369;52.840;7.082;2023-03-01T16:41:34;17.50;;;13.27;;
52456;SDS011;38369;52.840;7.082;2023-03-01T16:44:00;17.77;;;13.15;;
52456;SDS011;38369;52.840;7.082;2023-03-01T16:46:27;23.23;;;14.85;;
52456;SDS011;38369;52.840;7.082;2023-03-01T16:48:53;20.70;;;14.13;;
52456;SDS011;38369;52.840;7.082;2023-03-01T16:51:20;22.55;;;14.43;;
52456;SDS011;38369;52.840;7.082;2023-03-01T16:53:46;21.10;;;15.52;;
52456;SDS011;38369;52.840;7.082;2023-03-01T16:56:13;23.65;;;15.45;;
52456;SDS011;38369;52.840;7.082;2023-03-01T16:58:40;23.08;;;15.48;;
52456;SDS011;38369;52.840;7.082;2023-03-01T17:01:07;24.88;;;17.17;;
52456;SDS011;38369;52.840;7.082;2023-03-01T17:03:34;26.17;;;17.00;;
52456;SDS011;38369;52.840;7.082;2023-03-01T17:06:01;22.80;;;15.70;;
52456;SDS011;38369;52.840;7.082;2023-03-01T17:08:27;25.08;;;17.35;;
52456;SDS011;38369;52.840;7.082;2023-03-01T17:10:53;26.60;;;16.02;;
52456;SDS011;38369;52.840;7.082;2023-03-01T17:13:19;23.23;;;15.65;;
52456;SDS011;38369;52.840;7.082;2023-03-01T17:15:45;26.08;;;17.77;;
52456;SDS011;38369;52.840;7.082;2023-03-01T17:18:11;27.13;;;18.05;;
52456;SDS011;38369;52.840;7.082;2023-03-01T17:20:37;24.65;;;16.50;;
52456;SDS011;38369;52.840;7.082;2023-03-01T17:23:03;24.85;;;18.13;;
52456;SDS011;38369;52.840;7.082;2023-03-01T17:25:30;28.17;;;18.20;;
52456;SDS011;38369;52.840;7.082;2023-03-01T17:27:56;45.33;;;26.52;;
52456;SDS011;38369;52.840;7.082;2023-03-01T17:30:22;30.63;;;18.10;;
52456;SDS011;38369;52.840;7.082;2023-03-01T17:32:48;25.92;;;16.73;;
52456;SDS011;38369;52.840;7.082;2023-03-01T17:35:14;27.67;;;19.00;;
52456;SDS011;38369;52.840;7.082;2023-03-01T17:37:40;24.17;;;17.20;;
52456;SDS011;38369;52.840;7.082;2023-03-01T17:40:10;22.95;;;15.98;;
52456;SDS011;38369;52.840;7.082;2023-03-01T17:42:37;25.95;;;18.10;;
52456;SDS011;38369;52.840;7.082;2023-03-01T17:45:03;24.73;;;16.98;;
52456;SDS011;38369;52.840;7.082;2023-03-01T17:47:29;24.15;;;16.65;;
52456;SDS011;38369;52.840;7.082;2023-03-01T17:49:55;25.50;;;16.38;;
52456;SDS011;38369;52.840;7.082;2023-03-01T17:52:21;29.02;;;17.67;;
52456;SDS011;38369;52.840;7.082;2023-03-01T17:54:48;24.40;;;17.15;;
52456;SDS011;38369;52.840;7.082;2023-03-01T17:57:14;26.98;;;18.13;;
52456;SDS011;38369;52.840;7.082;2023-03-01T17:59:40;25.02;;;17.15;;
52456;SDS011;38369;52.840;7.082;2023-03-01T18:02:06;27.15;;;18.23;;
52456;SDS011;38369;52.840;7.082;2023-03-01T18:04:32;25.77;;;17.08;;
52456;SDS011;38369;52.840;7.082;2023-03-01T18:06:58;31.98;;;19.38;;
52456;SDS011;38369;52.840;7.082;2023-03-01T18:09:27;27.73;;;17.67;;
52456;SDS011;38369;52.840;7.082;2023-03-01T18:11:54;31.40;;;18.77;;
52456;SDS011;38369;52.840;7.082;2023-03-01T18:14:20;24.95;;;17.95;;
52456;SDS011;38369;52.840;7.082;2023-03-01T18:16:47;33.10;;;21.85;;
52456;SDS011;38369;52.840;7.082;2023-03-01T18:19:13;27.35;;;19.02;;
52456;SDS011;38369;52.840;7.082;2023-03-01T18:21:39;31.65;;;20.60;;
52456;SDS011;38369;52.840;7.082;2023-03-01T18:24:05;31.17;;;23.27;;
52456;SDS011;38369;52.840;7.082;2023-03-01T18:26:31;32.08;;;21.85;;
52456;SDS011;38369;52.840;7.082;2023-03-01T18:28:57;30.45;;;20.38;;
52456;SDS011;38369;52.840;7.082;2023-03-01T18:31:25;26.30;;;17.20;;
52456;SDS011;38369;52.840;7.082;2023-03-01T18:33:52;28.60;;;19.83;;
52456;SDS011;38369;52.840;7.082;2023-03-01T18:36:25;29.35;;;19.50;;
52456;SDS011;38369;52.840;7.082;2023-03-01T18:38:52;32.30;;;19.52;;
52456;SDS011;38369;52.840;7.082;2023-03-01T18:41:20;31.70;;;21.23;;
52456;SDS011;38369;52.840;7.082;2023-03-01T18:43:46;34.70;;;21.08;;
52456;SDS011;38369;52.840;7.082;2023-03-01T18:46:12;32.97;;;23.15;;